Port Stanley — V7EE9 — position and weather

sailwx.info

Track history (hours):
 
Tides and Currents Weather Stations Pressure Air Temp Water Temp Dewpoint Dewpoint Depression Visibility Wind Speed Wind Dir Waves Ship Positions

Port Stanley

Last reported at 2014-Nov-30 09:24 UTC. Time now 2014-Dec-17 19:56 UTC.
Position N 35°57' E 120°43'.
Warning: this ship's position is 17 days out of date.

Length 183 m; draft 8.4 m.

Type: Tanker. MMSI: 538090299.

Date/timePositionNaut miles runAvg speedWind from/ knotsBaromVisibWave heightAir tempDewpointWater temp
2014-Nov-30 09:24N 35°57' E 120°43'1213.7
2014-Nov-30 08:33N 35°59' E 120°29'1312.4
2014-Nov-30 07:30N 36°04' E 120°14'1 0.0
2014-Nov-29 00:15N 36°04' E 120°13'4 6.3
2014-Nov-28 23:33N 36°02' E 120°18'1312.8
2014-Nov-28 22:33N 35°59' E 120°33'10 9.6
2014-Nov-28 21:33N 35°57' E 120°45'  
2014-Nov-25 01:14N 35°11' E 139°46'811.9
2014-Nov-25 00:33N 35°19' E 139°43'7 6.4
2014-Nov-24 23:32N 35°25' E 139°39'0 0.0
2014-Nov-24 22:32N 35°25' E 139°39'0 0.0
2014-Nov-24 21:32N 35°25' E 139°39'0 0.0
2014-Nov-24 20:32N 35°25' E 139°39'0 0.0
2014-Nov-24 19:32N 35°25' E 139°39'0 0.0
2014-Nov-24 18:32N 35°25' E 139°39'0 0.0
2014-Nov-24 17:32N 35°25' E 139°39'0 0.0
2014-Nov-24 16:29N 35°25' E 139°39'0 0.0
2014-Nov-24 15:32N 35°25' E 139°39'0 0.0
2014-Nov-24 14:29N 35°25' E 139°39'0 0.0
2014-Nov-24 13:29N 35°25' E 139°39'0 0.0
2014-Nov-24 12:32N 35°25' E 139°39'0 0.0
2014-Nov-24 11:32N 35°25' E 139°39'0 0.0
2014-Nov-24 10:32N 35°25' E 139°39'0 0.0
2014-Nov-24 09:29N 35°25' E 139°39'0 0.0
2014-Nov-24 08:32N 35°25' E 139°39'0 0.0
2014-Nov-24 07:32N 35°25' E 139°39'0 0.0
2014-Nov-24 06:32N 35°25' E 139°39'0 0.0
2014-Nov-24 05:32N 35°25' E 139°39'0 0.0
2014-Nov-24 04:32N 35°25' E 139°39'0 0.0
2014-Nov-24 03:29N 35°25' E 139°39'0 0.0
2014-Nov-24 02:32N 35°25' E 139°39'0 0.0
2014-Nov-24 01:32N 35°25' E 139°39'0 0.0
2014-Nov-24 00:32N 35°25' E 139°39'0 0.0
2014-Nov-23 23:32N 35°25' E 139°39'0 0.0
2014-Nov-23 22:29N 35°25' E 139°39'0 0.0
2014-Nov-23 21:32N 35°25' E 139°39'0 0.0
2014-Nov-23 20:32N 35°25' E 139°39'0 0.0
2014-Nov-23 19:32N 35°25' E 139°39'0 0.0
2014-Nov-23 18:29N 35°25' E 139°39'0 0.0
2014-Nov-23 17:32N 35°25' E 139°39'0 0.0
2014-Nov-23 16:32N 35°25' E 139°39'0 0.0
2014-Nov-23 15:32N 35°25' E 139°39'0 0.0
2014-Nov-23 14:32N 35°25' E 139°39'0 0.0
2014-Nov-23 13:32N 35°25' E 139°39'0 0.0
2014-Nov-23 12:32N 35°25' E 139°39'0 0.0
2014-Nov-23 11:32N 35°25' E 139°39'0 0.0
2014-Nov-23 10:29N 35°25' E 139°39'0 0.0
2014-Nov-23 09:23N 35°25' E 139°39'0 0.0
2014-Nov-23 08:32N 35°25' E 139°39'0 0.0
2014-Nov-23 07:32N 35°25' E 139°39'0 0.0
2014-Nov-23 06:32N 35°25' E 139°39'0 0.0
2014-Nov-23 05:32N 35°25' E 139°39'0 0.0
2014-Nov-23 04:32N 35°25' E 139°39'0 0.2
2014-Nov-23 03:33N 35°25' E 139°39'10 9.8
2014-Nov-23 02:33N 35°17' E 139°46'1010.4
2014-Nov-23 01:33N 35°06' E 139°45'  
Track history (hours):
 
Tides and Currents Weather Stations Pressure Air Temp Water Temp Dewpoint Dewpoint Depression Visibility Wind Speed Wind Dir Waves Ship Positions

Port Stanley

Last reported at 2014-Nov-30 09:24 UTC. Time now 2014-Dec-17 19:56 UTC.
Position N 35°57' E 120°43'.
Warning: this ship's position is 17 days out of date.

Length 183 m; draft 8.4 m.

Type: Tanker. MMSI: 538090299.

Date/timePositionNaut miles runAvg speedWind from/ knotsBaromVisibWave heightAir tempDewpointWater temp
2014-Nov-30 09:24N 35°57' E 120°43'1213.7
2014-Nov-30 08:33N 35°59' E 120°29'1312.4
2014-Nov-30 07:30N 36°04' E 120°14'1 0.0
2014-Nov-29 00:15N 36°04' E 120°13'4 6.3
2014-Nov-28 23:33N 36°02' E 120°18'1312.8
2014-Nov-28 22:33N 35°59' E 120°33'10 9.6
2014-Nov-28 21:33N 35°57' E 120°45'  
2014-Nov-25 01:14N 35°11' E 139°46'811.9
2014-Nov-25 00:33N 35°19' E 139°43'7 6.4
2014-Nov-24 23:32N 35°25' E 139°39'0 0.0
2014-Nov-24 22:32N 35°25' E 139°39'0 0.0
2014-Nov-24 21:32N 35°25' E 139°39'0 0.0
2014-Nov-24 20:32N 35°25' E 139°39'0 0.0
2014-Nov-24 19:32N 35°25' E 139°39'0 0.0
2014-Nov-24 18:32N 35°25' E 139°39'0 0.0
2014-Nov-24 17:32N 35°25' E 139°39'0 0.0
2014-Nov-24 16:29N 35°25' E 139°39'0 0.0
2014-Nov-24 15:32N 35°25' E 139°39'0 0.0
2014-Nov-24 14:29N 35°25' E 139°39'0 0.0
2014-Nov-24 13:29N 35°25' E 139°39'0 0.0
2014-Nov-24 12:32N 35°25' E 139°39'0 0.0
2014-Nov-24 11:32N 35°25' E 139°39'0 0.0
2014-Nov-24 10:32N 35°25' E 139°39'0 0.0
2014-Nov-24 09:29N 35°25' E 139°39'0 0.0
2014-Nov-24 08:32N 35°25' E 139°39'0 0.0
2014-Nov-24 07:32N 35°25' E 139°39'0 0.0
2014-Nov-24 06:32N 35°25' E 139°39'0 0.0
2014-Nov-24 05:32N 35°25' E 139°39'0 0.0
2014-Nov-24 04:32N 35°25' E 139°39'0 0.0
2014-Nov-24 03:29N 35°25' E 139°39'0 0.0
2014-Nov-24 02:32N 35°25' E 139°39'0 0.0
2014-Nov-24 01:32N 35°25' E 139°39'0 0.0
2014-Nov-24 00:32N 35°25' E 139°39'0 0.0
2014-Nov-23 23:32N 35°25' E 139°39'0 0.0
2014-Nov-23 22:29N 35°25' E 139°39'0 0.0
2014-Nov-23 21:32N 35°25' E 139°39'0 0.0
2014-Nov-23 20:32N 35°25' E 139°39'0 0.0
2014-Nov-23 19:32N 35°25' E 139°39'0 0.0
2014-Nov-23 18:29N 35°25' E 139°39'0 0.0
2014-Nov-23 17:32N 35°25' E 139°39'0 0.0
2014-Nov-23 16:32N 35°25' E 139°39'0 0.0
2014-Nov-23 15:32N 35°25' E 139°39'0 0.0
2014-Nov-23 14:32N 35°25' E 139°39'0 0.0
2014-Nov-23 13:32N 35°25' E 139°39'0 0.0
2014-Nov-23 12:32N 35°25' E 139°39'0 0.0
2014-Nov-23 11:32N 35°25' E 139°39'0 0.0
2014-Nov-23 10:29N 35°25' E 139°39'0 0.0
2014-Nov-23 09:23N 35°25' E 139°39'0 0.0
2014-Nov-23 08:32N 35°25' E 139°39'0 0.0
2014-Nov-23 07:32N 35°25' E 139°39'0 0.0
2014-Nov-23 06:32N 35°25' E 139°39'0 0.0
2014-Nov-23 05:32N 35°25' E 139°39'0 0.0
2014-Nov-23 04:32N 35°25' E 139°39'0 0.2
2014-Nov-23 03:33N 35°25' E 139°39'10 9.8
2014-Nov-23 02:33N 35°17' E 139°46'1010.4
2014-Nov-23 01:33N 35°06' E 139°45'  

Dump ship's entire track history